createdAt,value
2022-10-23T07:41:17.199Z,87.34
2022-10-23T07:46:20.654Z,87.45
2022-10-23T07:51:24.062Z,87.49
2022-10-23T07:56:32.187Z,87.44
2022-10-23T08:01:39.166Z,87.53
2022-10-23T08:06:42.810Z,87.61
2022-10-23T08:11:46.217Z,87.66
2022-10-23T08:16:49.590Z,87.61
2022-10-23T08:21:55.013Z,87.61
2022-10-23T08:26:59.017Z,87.75
2022-10-23T08:32:02.534Z,87.74
2022-10-23T08:37:06.001Z,87.76
2022-10-23T08:42:21.346Z,87.69
2022-10-23T08:47:43.189Z,87.46
2022-10-23T08:52:46.632Z,87.31
2022-10-23T08:58:06.298Z,87.14
2022-10-23T09:03:12.788Z,87.21
2022-10-23T09:08:27.975Z,87.01
2022-10-23T09:14:18.905Z,87.10
2022-10-23T09:19:28.214Z,87.04
2022-10-23T09:24:33.725Z,87.17
2022-10-23T09:29:37.050Z,87.18
2022-10-23T09:34:53.649Z,87.44
2022-10-23T09:40:30.021Z,87.50
2022-10-23T09:45:35.716Z,87.51
2022-10-23T09:50:55.108Z,87.36
2022-10-23T09:56:08.188Z,87.28
2022-10-23T10:01:48.171Z,87.30
2022-10-23T10:06:59.642Z,87.18
2022-10-23T10:12:47.671Z,87.11
2022-10-23T10:18:38.671Z,87.04
2022-10-23T10:23:56.142Z,86.96
2022-10-23T10:29:19.416Z,86.90
2022-10-23T10:35:03.488Z,86.96
2022-10-23T10:40:31.533Z,86.97
2022-10-23T10:45:49.025Z,87.09
2022-10-23T10:51:06.162Z,87.22
2022-10-23T10:56:16.242Z,87.34
2022-10-23T11:02:00.238Z,87.57
2022-10-23T11:07:11.705Z,87.76
2022-10-23T11:12:28.436Z,87.93
2022-10-23T11:17:41.101Z,87.95
2022-10-23T11:23:02.802Z,87.97
2022-10-23T11:28:43.796Z,88.02
2022-10-23T11:34:32.285Z,88.15
2022-10-23T11:39:39.900Z,88.19
2022-10-23T11:44:50.903Z,88.20
2022-10-23T11:50:09.367Z,88.07
2022-10-23T11:55:24.596Z,88.04
2022-10-23T12:00:31.048Z,88.00
2022-10-23T12:05:41.864Z,87.88
2022-10-23T12:10:53.059Z,87.83
2022-10-23T12:15:59.941Z,87.82
2022-10-23T12:21:05.473Z,87.73
2022-10-23T12:26:30.067Z,87.60
2022-10-23T12:31:47.818Z,87.59
2022-10-23T12:37:32.789Z,87.51
2022-10-23T12:42:38.166Z,87.40
2022-10-23T12:47:45.470Z,87.41
2022-10-23T12:53:04.653Z,87.40
2022-10-23T12:58:34.174Z,87.29
2022-10-23T13:03:39.525Z,87.19
2022-10-23T13:08:47.826Z,87.10
2022-10-23T13:13:51.383Z,87.02
2022-10-23T13:18:55.023Z,86.82
2022-10-23T13:23:58.622Z,86.68
2022-10-23T13:29:08.870Z,86.57
2022-10-23T13:34:28.646Z,86.39
2022-10-23T13:39:34.338Z,86.51
2022-10-23T13:44:38.342Z,86.44
2022-10-23T13:49:41.819Z,86.47
2022-10-23T13:54:45.137Z,86.36
2022-10-23T13:59:48.541Z,86.24
2022-10-23T14:04:52.862Z,86.29
2022-10-23T14:09:56.137Z,86.31
2022-10-23T14:14:59.395Z,86.21
2022-10-23T14:20:06.106Z,86.14
2022-10-23T14:25:10.258Z,86.07
2022-10-23T14:30:14.682Z,86.11
2022-10-23T14:35:18.056Z,86.20
2022-10-23T14:40:21.886Z,86.28
2022-10-23T14:45:25.165Z,86.28
2022-10-23T14:50:28.738Z,86.31
2022-10-23T14:55:32.035Z,86.34
2022-10-23T15:00:35.300Z,86.38
2022-10-23T15:05:43.150Z,86.43
2022-10-23T15:10:46.692Z,86.42
2022-10-23T15:15:50.179Z,86.50
2022-10-23T15:20:53.802Z,86.61
2022-10-23T15:26:03.458Z,86.54
2022-10-23T15:31:06.822Z,86.70
2022-10-23T15:36:10.125Z,86.68
2022-10-23T15:41:22.807Z,86.79
2022-10-23T15:46:26.440Z,86.72
2022-10-23T15:51:29.739Z,86.81
2022-10-23T15:56:34.600Z,86.96
2022-10-23T16:01:38.137Z,86.99
2022-10-23T16:06:42.649Z,86.82
2022-10-23T16:11:45.960Z,86.82
2022-10-23T16:16:49.274Z,86.82
2022-10-23T16:21:52.582Z,86.86
2022-10-23T16:26:57.839Z,86.82
2022-10-23T16:32:01.187Z,87.02
2022-10-23T16:37:04.564Z,87.18
2022-10-23T16:42:08.025Z,87.18
2022-10-23T16:47:11.392Z,87.13
2022-10-23T16:52:14.911Z,86.83
2022-10-23T16:57:18.207Z,86.63
2022-10-23T17:02:21.689Z,86.80
2022-10-23T17:07:25.247Z,86.75
2022-10-23T17:12:28.660Z,86.87
2022-10-23T17:17:31.915Z,86.98
2022-10-23T17:22:36.215Z,87.03
2022-10-23T17:27:39.507Z,86.99
2022-10-23T17:32:43.053Z,86.95
2022-10-23T17:37:46.568Z,86.97
2022-10-23T17:42:49.871Z,87.04
2022-10-23T17:47:53.593Z,87.01
2022-10-23T17:52:56.846Z,86.93
2022-10-23T17:58:00.398Z,86.98
2022-10-23T18:03:05.332Z,87.00
2022-10-23T18:08:08.676Z,86.96
2022-10-23T18:13:12.001Z,86.99
2022-10-23T18:18:15.357Z,87.14
2022-10-23T18:23:18.718Z,87.15
2022-10-23T18:28:22.579Z,87.07
2022-10-23T18:33:26.798Z,87.06
2022-10-23T18:38:33.257Z,87.14
2022-10-23T18:43:43.785Z,87.24
2022-10-23T18:48:51.040Z,87.29
2022-10-23T18:53:54.781Z,87.32
2022-10-23T18:59:02.066Z,87.37
2022-10-23T19:04:06.023Z,87.47
2022-10-23T19:09:12.346Z,87.50
2022-10-23T19:14:15.895Z,87.57
2022-10-23T19:19:24.857Z,87.61
2022-10-23T19:24:44.128Z,87.69
2022-10-23T19:29:50.816Z,87.69
2022-10-23T19:34:54.210Z,87.55
2022-10-23T19:39:57.749Z,87.57
2022-10-23T19:45:01.365Z,87.71
2022-10-23T19:50:07.353Z,87.84
2022-10-23T19:55:11.505Z,88.06
2022-10-23T20:00:15.446Z,88.32
2022-10-23T20:05:18.810Z,88.57
2022-10-23T20:10:22.533Z,88.61
2022-10-23T20:15:25.786Z,88.61
2022-10-23T20:20:29.157Z,88.64
2022-10-23T20:25:32.381Z,88.71
2022-10-23T20:30:42.708Z,88.86
2022-10-23T20:35:46.093Z,88.93
2022-10-23T20:40:49.652Z,88.86
2022-10-23T20:45:53.301Z,88.75
2022-10-23T20:50:56.614Z,88.74
2022-10-23T20:56:00.038Z,88.67
2022-10-23T21:01:09.968Z,88.64
2022-10-23T21:06:16.257Z,88.64
2022-10-23T21:11:19.593Z,88.47
2022-10-23T21:16:30.068Z,88.27
2022-10-23T21:21:33.670Z,88.14
2022-10-23T21:26:37.257Z,87.93
2022-10-23T21:31:40.702Z,87.57
2022-10-23T21:37:07.488Z,87.71
2022-10-23T21:42:10.414Z,87.57
2022-10-23T21:47:14.017Z,87.35
2022-10-23T21:52:19.068Z,87.54
2022-10-23T21:57:23.270Z,87.96
2022-10-23T22:02:27.289Z,87.67
2022-10-23T22:07:30.713Z,87.53
2022-10-23T22:12:34.043Z,87.47
2022-10-23T22:17:37.333Z,87.32
2022-10-23T22:22:40.593Z,87.32
2022-10-23T22:27:44.022Z,87.33
2022-10-23T22:32:47.600Z,87.27
2022-10-23T22:37:51.096Z,87.40
2022-10-23T22:42:54.401Z,87.56
2022-10-23T22:47:57.762Z,87.58
2022-10-23T22:53:01.088Z,87.67
2022-10-23T22:58:04.390Z,87.79
2022-10-23T23:03:08.444Z,87.68
2022-10-23T23:08:13.741Z,87.64
2022-10-23T23:13:17.040Z,87.68
2022-10-23T23:18:21.682Z,87.69
2022-10-23T23:23:24.993Z,87.72
2022-10-23T23:28:28.340Z,87.82
2022-10-23T23:33:31.718Z,87.97
2022-10-23T23:38:37.485Z,88.02
2022-10-23T23:43:42.433Z,88.08
2022-10-23T23:48:48.812Z,88.20
2022-10-23T23:53:52.803Z,88.13
2022-10-23T23:58:58.040Z,88.18
